createdAt,value
2019-05-18T00:00:50.146Z,13.20
2019-05-18T00:03:19.420Z,13.00
2019-05-18T00:05:48.551Z,12.80
2019-05-18T00:08:17.720Z,12.80
2019-05-18T00:10:46.969Z,12.80
2019-05-18T00:13:16.211Z,12.90
2019-05-18T00:15:45.450Z,12.90
2019-05-18T00:18:14.683Z,12.80
2019-05-18T00:20:43.832Z,12.80
2019-05-18T00:23:13.061Z,13.00
2019-05-18T00:25:42.273Z,13.20
2019-05-18T00:28:11.554Z,13.40
2019-05-18T00:30:40.812Z,13.50
2019-05-18T00:33:10.067Z,13.60
2019-05-18T00:35:39.290Z,13.70
2019-05-18T00:38:08.526Z,13.70
2019-05-18T00:40:37.749Z,13.80
2019-05-18T00:43:07.012Z,13.80
2019-05-18T00:45:36.234Z,13.80
2019-05-18T00:48:05.394Z,13.80
2019-05-18T00:50:34.531Z,13.70
2019-05-18T00:53:03.669Z,13.60
2019-05-18T00:55:32.908Z,13.60
2019-05-18T00:58:02.148Z,13.60
2019-05-18T01:00:31.287Z,13.60
2019-05-18T01:03:00.487Z,13.50
2019-05-18T01:05:29.709Z,13.40
2019-05-18T01:07:58.938Z,13.20
2019-05-18T01:10:28.194Z,13.00
2019-05-18T01:12:57.406Z,12.90
2019-05-18T01:15:26.652Z,12.80
2019-05-18T01:17:57.680Z,12.60
2019-05-18T01:20:26.754Z,12.50
2019-05-18T01:22:55.975Z,12.40
2019-05-18T01:25:25.150Z,12.50
2019-05-18T01:27:54.286Z,12.50
2019-05-18T01:30:23.562Z,12.50
2019-05-18T01:32:52.816Z,12.50
2019-05-18T01:35:22.190Z,12.50
2019-05-18T01:37:51.803Z,12.40
2019-05-18T01:40:21.121Z,12.40
2019-05-18T01:42:50.347Z,12.30
2019-05-18T01:45:19.514Z,12.30
2019-05-18T01:47:48.656Z,12.30
2019-05-18T01:50:18.534Z,12.30
2019-05-18T01:52:47.668Z,12.30
2019-05-18T01:55:16.912Z,12.40
2019-05-18T01:57:46.157Z,12.30
2019-05-18T02:00:15.942Z,12.40
2019-05-18T02:02:45.183Z,12.30
2019-05-18T02:05:14.451Z,12.40
2019-05-18T02:07:43.680Z,12.40
2019-05-18T02:10:13.008Z,12.40
2019-05-18T02:12:42.184Z,12.40
2019-05-18T02:15:11.546Z,12.40
2019-05-18T02:17:40.779Z,12.40
2019-05-18T02:20:10.398Z,12.50
2019-05-18T02:22:39.622Z,12.50
2019-05-18T02:25:08.909Z,12.50
2019-05-18T02:27:38.122Z,12.50
2019-05-18T02:30:08.148Z,12.50
2019-05-18T02:32:37.387Z,12.50
2019-05-18T02:35:07.409Z,12.50
2019-05-18T02:37:36.648Z,12.40
2019-05-18T02:40:06.245Z,12.40
2019-05-18T02:42:35.469Z,12.40
2019-05-18T02:45:05.053Z,12.40
2019-05-18T02:47:34.263Z,12.40
2019-05-18T02:50:03.540Z,12.50
2019-05-18T02:52:32.766Z,12.60
2019-05-18T02:55:01.938Z,12.70
2019-05-18T02:57:31.154Z,12.70
2019-05-18T03:00:00.340Z,12.80
2019-05-18T03:02:29.573Z,12.80
2019-05-18T03:04:58.839Z,12.80
2019-05-18T03:07:28.057Z,12.80
2019-05-18T03:09:57.226Z,12.80
2019-05-18T03:12:26.438Z,12.70
2019-05-18T03:14:55.674Z,12.60
2019-05-18T03:17:25.156Z,12.50
2019-05-18T03:19:54.323Z,12.40
2019-05-18T03:22:23.547Z,12.30
2019-05-18T03:24:52.718Z,12.20
2019-05-18T03:27:21.866Z,12.20
2019-05-18T03:29:51.179Z,12.20
2019-05-18T03:32:20.409Z,12.20
2019-05-18T03:34:49.630Z,12.20
2019-05-18T03:37:18.921Z,12.20
2019-05-18T03:39:48.050Z,12.20
2019-05-18T03:42:17.301Z,12.20
2019-05-18T03:44:46.501Z,12.20
2019-05-18T03:47:15.748Z,12.20
2019-05-18T03:49:44.981Z,12.20
2019-05-18T03:52:14.235Z,12.20
2019-05-18T03:54:43.478Z,12.20
2019-05-18T03:57:12.685Z,12.20
2019-05-18T03:59:41.897Z,12.20
2019-05-18T04:02:11.125Z,12.20
2019-05-18T04:04:40.406Z,12.20
2019-05-18T04:07:09.629Z,12.20
2019-05-18T04:09:38.868Z,12.20
2019-05-18T04:12:08.097Z,12.20
2019-05-18T04:14:37.326Z,12.20
2019-05-18T04:17:06.577Z,12.30
2019-05-18T04:19:46.427Z,12.30
2019-05-18T04:22:06.836Z,12.30
2019-05-18T04:24:36.011Z,12.30
2019-05-18T04:27:05.238Z,12.30
2019-05-18T04:29:34.407Z,12.20
2019-05-18T04:32:03.621Z,12.20
2019-05-18T04:34:32.779Z,12.20
2019-05-18T04:37:02.065Z,12.30
2019-05-18T04:39:31.218Z,12.30
2019-05-18T04:42:00.414Z,12.30
2019-05-18T04:44:29.699Z,12.40
2019-05-18T04:46:58.944Z,12.40
2019-05-18T04:49:28.159Z,12.50
2019-05-18T04:51:57.385Z,12.60
2019-05-18T04:54:26.628Z,12.60
2019-05-18T04:56:55.871Z,12.60
2019-05-18T04:59:25.101Z,12.60
2019-05-18T05:01:54.374Z,12.60
2019-05-18T05:04:23.666Z,12.60
2019-05-18T05:06:52.820Z,12.60
2019-05-18T05:09:21.974Z,12.70
2019-05-18T05:11:51.233Z,12.70
2019-05-18T05:14:20.452Z,12.70
2019-05-18T05:16:49.653Z,12.80
2019-05-18T05:19:18.892Z,12.80
2019-05-18T05:21:48.142Z,12.80
2019-05-18T05:24:17.394Z,12.90
2019-05-18T05:26:46.614Z,12.90
2019-05-18T05:29:15.759Z,13.00
2019-05-18T05:31:45.029Z,13.10
2019-05-18T05:34:14.172Z,13.10
2019-05-18T05:36:43.476Z,13.00
2019-05-18T05:39:12.708Z,13.00
2019-05-18T05:41:42.030Z,13.10
2019-05-18T05:44:11.261Z,13.10
2019-05-18T05:46:40.541Z,13.10
2019-05-18T05:49:10.117Z,13.20
2019-05-18T05:51:39.444Z,13.20
2019-05-18T05:54:08.633Z,13.30
2019-05-18T05:56:37.842Z,13.30
2019-05-18T05:59:07.077Z,13.30
2019-05-18T06:01:36.248Z,13.30
2019-05-18T06:04:05.445Z,13.30
2019-05-18T06:06:34.569Z,13.30
2019-05-18T06:09:06.290Z,13.40
2019-05-18T06:11:35.534Z,13.40
2019-05-18T06:14:04.834Z,13.40
2019-05-18T06:16:34.065Z,13.50
2019-05-18T06:19:03.319Z,13.50
2019-05-18T06:21:32.503Z,13.50
2019-05-18T06:24:01.810Z,13.50
2019-05-18T06:26:31.069Z,13.50
2019-05-18T06:29:00.321Z,13.50
2019-05-18T06:31:29.547Z,13.60
2019-05-18T06:33:58.833Z,13.70
2019-05-18T06:36:28.152Z,13.70
2019-05-18T06:38:57.425Z,13.80
2019-05-18T06:41:27.014Z,13.70
2019-05-18T06:43:58.398Z,13.60
2019-05-18T06:46:28.284Z,13.60
2019-05-18T06:48:57.970Z,13.60
2019-05-18T06:51:27.670Z,13.60
2019-05-18T06:53:57.292Z,13.60
2019-05-18T06:57:02.553Z,13.70
2019-05-18T06:59:55.442Z,13.70
2019-05-18T07:02:30.609Z,13.80
2019-05-18T07:05:00.923Z,13.80
2019-05-18T07:07:45.516Z,13.90
2019-05-18T07:10:22.007Z,14.00
2019-05-18T07:12:58.540Z,14.20
2019-05-18T07:15:28.757Z,14.40
2019-05-18T07:17:58.519Z,14.50
2019-05-18T07:20:28.366Z,14.60
2019-05-18T07:22:58.227Z,14.60
2019-05-18T07:25:28.334Z,14.60
2019-05-18T07:27:58.427Z,14.60
2019-05-18T07:30:29.098Z,14.60
2019-05-18T07:33:02.550Z,14.50
2019-05-18T07:35:33.242Z,14.60
2019-05-18T07:38:05.676Z,14.80
2019-05-18T07:40:36.274Z,14.70
2019-05-18T07:43:05.906Z,14.80
2019-05-18T07:45:35.612Z,14.90
2019-05-18T07:48:05.307Z,15.10
2019-05-18T07:50:35.001Z,15.20
2019-05-18T07:53:04.808Z,15.20
2019-05-18T07:55:34.922Z,15.20
2019-05-18T07:58:04.670Z,15.20
2019-05-18T08:00:34.436Z,15.30
2019-05-18T08:03:04.150Z,15.40
2019-05-18T08:05:33.840Z,15.70
2019-05-18T08:08:03.494Z,15.80
2019-05-18T08:10:37.410Z,16.00
2019-05-18T08:13:07.737Z,16.00
2019-05-18T08:15:37.750Z,16.20
2019-05-18T08:18:07.666Z,16.30
2019-05-18T08:20:37.318Z,16.50
2019-05-18T08:23:06.933Z,16.50
2019-05-18T08:25:36.700Z,16.60
2019-05-18T08:28:06.490Z,16.70
2019-05-18T08:30:36.161Z,16.80
2019-05-18T08:33:05.797Z,16.90
2019-05-18T08:35:35.523Z,16.90
2019-05-18T08:38:05.188Z,16.90
2019-05-18T08:40:35.148Z,17.00
2019-05-18T08:43:04.804Z,17.00
2019-05-18T08:45:34.549Z,16.70
2019-05-18T08:48:04.316Z,16.90
2019-05-18T08:50:34.234Z,16.90
2019-05-18T08:53:05.753Z,17.00
2019-05-18T08:55:36.072Z,16.90
2019-05-18T08:58:05.735Z,17.00
2019-05-18T09:00:38.482Z,17.10
2019-05-18T09:03:08.309Z,17.30
2019-05-18T09:05:38.857Z,17.30
2019-05-18T09:08:11.892Z,17.40
2019-05-18T09:10:41.653Z,17.40
2019-05-18T09:13:12.912Z,17.20
2019-05-18T09:15:43.649Z,17.40
2019-05-18T09:18:13.402Z,17.50
2019-05-18T09:20:43.338Z,17.60
2019-05-18T09:23:13.225Z,17.60
2019-05-18T09:25:43.164Z,17.70
2019-05-18T09:28:12.990Z,17.70
2019-05-18T09:30:42.725Z,17.50
2019-05-18T09:33:12.533Z,17.60
2019-05-18T09:35:42.193Z,17.60
2019-05-18T09:38:11.913Z,17.80
2019-05-18T09:40:41.788Z,17.90
2019-05-18T09:43:11.836Z,18.00
2019-05-18T09:45:41.576Z,18.20
2019-05-18T09:48:11.576Z,18.20
2019-05-18T09:50:42.734Z,18.30
2019-05-18T09:53:13.937Z,18.40
2019-05-18T09:55:47.457Z,18.50
2019-05-18T09:58:17.420Z,18.50
2019-05-18T10:00:54.183Z,18.60
2019-05-18T10:03:24.097Z,18.70
2019-05-18T10:06:13.107Z,18.80
2019-05-18T10:08:42.932Z,18.80
2019-05-18T10:11:12.659Z,18.80
2019-05-18T10:13:42.054Z,19.00
2019-05-18T10:16:11.634Z,19.00
2019-05-18T10:18:41.242Z,19.00
2019-05-18T10:21:11.205Z,19.10
2019-05-18T10:23:40.866Z,19.10
2019-05-18T10:26:10.695Z,19.10
2019-05-18T10:28:40.480Z,18.90
2019-05-18T10:31:10.246Z,18.90
2019-05-18T10:33:39.871Z,19.00
2019-05-18T10:36:11.655Z,19.10
2019-05-18T10:38:40.906Z,19.10
2019-05-18T10:41:10.576Z,19.20
2019-05-18T10:43:40.210Z,19.30
2019-05-18T10:46:09.743Z,19.30
2019-05-18T10:48:39.368Z,19.30
2019-05-18T10:51:09.354Z,19.40
2019-05-18T10:53:38.814Z,19.30
2019-05-18T10:56:08.319Z,19.30
2019-05-18T10:58:38.200Z,19.40
2019-05-18T11:01:07.597Z,19.50
2019-05-18T11:03:42.013Z,19.50
2019-05-18T11:06:11.874Z,19.60
2019-05-18T11:08:42.466Z,19.60
2019-05-18T11:11:11.936Z,19.60
2019-05-18T11:13:41.422Z,19.70
2019-05-18T11:16:10.915Z,19.80
2019-05-18T11:18:40.450Z,19.90
2019-05-18T11:21:09.972Z,19.90
2019-05-18T11:23:43.783Z,19.90
2019-05-18T11:26:10.649Z,19.90
2019-05-18T11:28:40.072Z,20.00
2019-05-18T11:31:09.535Z,20.00
2019-05-18T11:33:38.959Z,20.00
2019-05-18T11:36:08.920Z,20.00
2019-05-18T11:38:38.382Z,20.00
2019-05-18T11:41:07.695Z,20.10
2019-05-18T11:43:37.455Z,19.90
2019-05-18T11:46:07.142Z,19.90
2019-05-18T11:48:42.552Z,19.90
2019-05-18T11:51:19.766Z,20.00
2019-05-18T11:53:58.476Z,20.10
2019-05-18T11:56:26.949Z,20.20
2019-05-18T11:59:00.986Z,20.30
2019-05-18T12:01:36.492Z,20.30
2019-05-18T12:04:08.382Z,20.40
2019-05-18T12:06:41.337Z,20.40
2019-05-18T12:09:13.253Z,20.50
2019-05-18T12:11:45.359Z,20.60
2019-05-18T12:14:18.876Z,20.60
2019-05-18T12:16:48.353Z,20.60
2019-05-18T12:19:17.705Z,20.60
2019-05-18T12:21:47.051Z,20.60
2019-05-18T12:24:16.319Z,20.80
2019-05-18T12:26:45.690Z,20.90
2019-05-18T12:29:14.987Z,20.90
2019-05-18T12:31:45.071Z,20.80
2019-05-18T12:34:14.347Z,20.70
2019-05-18T12:36:43.667Z,20.70
2019-05-18T12:39:12.870Z,20.70
2019-05-18T12:41:43.221Z,20.90
2019-05-18T12:44:12.466Z,21.00
2019-05-18T12:46:43.774Z,21.10
2019-05-18T12:49:13.101Z,21.20
2019-05-18T12:51:42.373Z,21.30
2019-05-18T12:54:11.643Z,21.20
2019-05-18T12:56:40.966Z,21.30
2019-05-18T12:59:10.209Z,21.40
2019-05-18T13:01:45.435Z,21.60
2019-05-18T13:04:14.737Z,21.70
2019-05-18T13:06:44.150Z,21.70
2019-05-18T13:09:13.480Z,21.80
2019-05-18T13:11:42.766Z,21.90
2019-05-18T13:14:12.148Z,22.00
2019-05-18T13:16:41.508Z,22.00
2019-05-18T13:19:10.744Z,22.00
2019-05-18T13:21:40.004Z,21.90
2019-05-18T13:24:09.394Z,22.00
2019-05-18T13:26:38.583Z,22.10
2019-05-18T13:29:08.097Z,22.10
2019-05-18T13:31:37.333Z,22.20
2019-05-18T13:34:06.641Z,22.30
2019-05-18T13:36:36.054Z,22.20
2019-05-18T13:39:06.721Z,22.20
2019-05-18T13:41:36.045Z,22.20
2019-05-18T13:44:05.424Z,22.20
2019-05-18T13:46:34.651Z,22.20
2019-05-18T13:49:03.880Z,22.30
2019-05-18T13:51:33.170Z,22.40
2019-05-18T13:54:02.451Z,22.30
2019-05-18T13:56:31.649Z,22.20
2019-05-18T13:59:00.959Z,22.10
2019-05-18T14:01:30.316Z,21.90
2019-05-18T14:03:59.631Z,21.70
2019-05-18T14:06:28.947Z,21.60
2019-05-18T14:08:58.246Z,21.60
2019-05-18T14:11:27.475Z,21.60
2019-05-18T14:13:57.805Z,21.50
2019-05-18T14:16:27.136Z,21.40
2019-05-18T14:18:56.383Z,21.40
2019-05-18T14:21:25.675Z,21.30
2019-05-18T14:23:54.947Z,21.20
2019-05-18T14:26:24.202Z,21.20
2019-05-18T14:28:53.501Z,21.00
2019-05-18T14:31:22.795Z,20.80
2019-05-18T14:33:52.066Z,20.50
2019-05-18T14:36:21.345Z,20.20
2019-05-18T14:38:50.594Z,19.90
2019-05-18T14:41:19.881Z,19.60
2019-05-18T14:43:49.125Z,19.40
2019-05-18T14:46:18.371Z,19.20
2019-05-18T14:48:47.641Z,19.10
2019-05-18T14:51:16.943Z,19.00
2019-05-18T14:53:46.276Z,18.90
2019-05-18T14:56:15.513Z,18.70
2019-05-18T14:58:44.802Z,18.60
2019-05-18T15:01:14.083Z,18.50
2019-05-18T15:03:43.338Z,18.30
2019-05-18T15:06:12.540Z,18.20
2019-05-18T15:08:41.766Z,18.20
2019-05-18T15:11:11.108Z,18.10
2019-05-18T15:13:40.453Z,18.10
2019-05-18T15:16:14.496Z,18.10
2019-05-18T15:18:43.790Z,18.10
2019-05-18T15:21:13.099Z,18.00
2019-05-18T15:23:42.391Z,18.10
2019-05-18T15:26:11.668Z,18.00
2019-05-18T15:28:40.891Z,17.90
2019-05-18T15:31:10.129Z,17.90
2019-05-18T15:33:39.401Z,17.80
2019-05-18T15:36:08.624Z,18.00
2019-05-18T15:38:37.858Z,18.10
2019-05-18T15:41:07.118Z,18.10
2019-05-18T15:43:36.313Z,18.00
2019-05-18T15:46:05.520Z,18.00
2019-05-18T15:48:34.789Z,17.80
2019-05-18T15:51:04.096Z,17.60
2019-05-18T15:53:33.233Z,17.60
2019-05-18T15:56:05.981Z,17.40
2019-05-18T15:58:33.520Z,17.40
2019-05-18T16:01:02.834Z,17.30
2019-05-18T16:03:32.109Z,17.20
2019-05-18T16:06:01.416Z,17.20
2019-05-18T16:08:30.720Z,17.10
2019-05-18T16:10:59.987Z,17.00
2019-05-18T16:13:29.258Z,17.10
2019-05-18T16:15:58.555Z,17.20
2019-05-18T16:18:27.810Z,17.20
2019-05-18T16:20:57.095Z,17.10
2019-05-18T16:23:26.341Z,17.20
2019-05-18T16:25:55.606Z,17.40
2019-05-18T16:28:24.973Z,17.40
2019-05-18T16:30:54.260Z,17.30
2019-05-18T16:33:23.515Z,17.30
2019-05-18T16:35:54.204Z,17.20
2019-05-18T16:38:23.455Z,17.20
2019-05-18T16:40:52.719Z,17.10
2019-05-18T16:43:21.990Z,17.10
2019-05-18T16:45:51.639Z,17.10
2019-05-18T16:48:20.991Z,17.10
2019-05-18T16:50:50.378Z,17.20
2019-05-18T16:53:19.738Z,17.40
2019-05-18T16:55:49.433Z,17.60
2019-05-18T16:58:18.857Z,17.70
2019-05-18T17:04:34.974Z,18.00
2019-05-18T17:07:04.254Z,18.10
2019-05-18T17:09:36.424Z,18.10
2019-05-18T17:12:05.762Z,18.20
2019-05-18T17:14:35.253Z,18.20
2019-05-18T17:17:04.744Z,18.20
2019-05-18T17:19:34.091Z,18.20
2019-05-18T17:22:03.499Z,18.20
2019-05-18T17:24:32.823Z,18.20
2019-05-18T17:27:02.316Z,18.20
2019-05-18T17:29:31.823Z,18.20
2019-05-18T17:32:01.559Z,18.30
2019-05-18T17:34:31.303Z,18.30
2019-05-18T17:37:00.731Z,18.30
2019-05-18T17:39:30.107Z,18.30
2019-05-18T17:42:27.809Z,18.30
2019-05-18T17:44:57.551Z,18.30
2019-05-18T17:47:29.485Z,18.10
2019-05-18T17:49:58.498Z,17.90
2019-05-18T17:52:28.081Z,17.80
2019-05-18T17:54:58.889Z,17.70
2019-05-18T17:57:33.593Z,17.60
2019-05-18T18:00:05.041Z,17.60
2019-05-18T18:02:39.733Z,17.50
2019-05-18T18:05:11.153Z,17.40
2019-05-18T18:07:42.546Z,17.40
2019-05-18T18:10:14.910Z,17.40
2019-05-18T18:12:46.346Z,17.50
2019-05-18T18:15:17.998Z,17.40
2019-05-18T18:17:50.234Z,17.20
2019-05-18T18:20:21.584Z,17.00
2019-05-18T18:22:52.920Z,16.80
2019-05-18T18:25:23.323Z,16.70
2019-05-18T18:27:53.500Z,16.60
2019-05-18T18:30:27.343Z,16.50
2019-05-18T18:32:58.152Z,16.60
2019-05-18T18:35:28.709Z,16.60
2019-05-18T18:37:58.144Z,16.50
2019-05-18T18:40:29.737Z,16.40
2019-05-18T18:42:59.105Z,16.30
2019-05-18T18:45:28.521Z,16.30
2019-05-18T18:47:58.171Z,16.20
2019-05-18T18:50:27.762Z,16.00
2019-05-18T18:52:57.420Z,15.90
2019-05-18T18:55:26.779Z,15.80
2019-05-18T18:57:56.422Z,15.70
2019-05-18T19:00:25.951Z,15.70
2019-05-18T19:02:55.360Z,15.80
2019-05-18T19:05:24.668Z,15.90
2019-05-18T19:07:54.111Z,15.90
2019-05-18T19:10:23.743Z,16.00
2019-05-18T19:12:53.155Z,16.20
2019-05-18T19:15:22.588Z,16.40
2019-05-18T19:17:52.139Z,16.50
2019-05-18T19:20:21.604Z,16.50
2019-05-18T19:22:50.996Z,16.30
2019-05-18T19:25:20.341Z,16.20
2019-05-18T19:27:54.875Z,16.20
2019-05-18T19:30:21.502Z,16.00
2019-05-18T19:32:51.062Z,15.90
2019-05-18T19:35:20.495Z,15.70
2019-05-18T19:37:50.072Z,15.60
2019-05-18T19:40:24.962Z,15.60
2019-05-18T19:42:54.803Z,15.50
2019-05-18T19:45:24.539Z,15.40
2019-05-18T19:47:54.019Z,15.30
2019-05-18T19:50:23.615Z,15.30
2019-05-18T19:52:53.466Z,15.20
2019-05-18T19:55:23.161Z,15.20
2019-05-18T19:57:52.953Z,15.30
2019-05-18T20:00:23.065Z,15.20
2019-05-18T20:02:52.880Z,15.10
2019-05-18T20:05:22.611Z,15.00
2019-05-18T20:07:52.376Z,14.90
2019-05-18T20:10:21.738Z,14.80
2019-05-18T20:12:52.455Z,14.70
2019-05-18T20:15:21.741Z,14.60
2019-05-18T20:17:51.802Z,14.50
2019-05-18T20:20:21.207Z,14.50
2019-05-18T20:22:51.918Z,14.40
2019-05-18T20:25:21.362Z,14.30
2019-05-18T20:27:55.237Z,14.20
2019-05-18T20:30:24.526Z,14.20
2019-05-18T20:32:53.851Z,14.10
2019-05-18T20:35:25.744Z,13.90
2019-05-18T20:37:54.130Z,13.90
2019-05-18T20:40:23.419Z,13.90
2019-05-18T20:42:52.691Z,13.80
2019-05-18T20:45:21.959Z,13.70
2019-05-18T20:47:51.236Z,13.70
2019-05-18T20:50:20.528Z,13.60
2019-05-18T20:52:49.817Z,13.50
2019-05-18T20:55:19.091Z,13.50
2019-05-18T20:57:48.345Z,13.50
2019-05-18T21:00:19.408Z,13.50
2019-05-18T21:02:48.628Z,13.40
2019-05-18T21:05:18.094Z,13.30
2019-05-18T21:07:47.384Z,13.40
2019-05-18T21:10:17.025Z,13.40
2019-05-18T21:12:46.242Z,13.40
2019-05-18T21:15:15.734Z,13.40
2019-05-18T21:17:45.005Z,13.30
2019-05-18T21:20:14.321Z,13.30
2019-05-18T21:22:43.963Z,13.30
2019-05-18T21:25:13.158Z,13.30
2019-05-18T21:27:42.453Z,13.30
2019-05-18T21:30:11.766Z,13.30
2019-05-18T21:32:41.047Z,13.20
2019-05-18T21:35:11.547Z,13.20
2019-05-18T21:37:40.813Z,13.10
2019-05-18T21:40:10.491Z,13.20
2019-05-18T21:42:42.746Z,13.10
2019-05-18T21:45:12.507Z,13.10
2019-05-18T21:47:43.761Z,13.00
2019-05-18T21:50:14.092Z,13.00
2019-05-18T21:52:44.035Z,13.00
2019-05-18T21:55:14.436Z,13.00
2019-05-18T21:57:43.809Z,12.90
2019-05-18T22:00:13.519Z,13.00
2019-05-18T22:02:42.757Z,13.00
2019-05-18T22:05:12.045Z,13.00
2019-05-18T22:07:41.286Z,13.10
2019-05-18T22:10:24.942Z,13.20
2019-05-18T22:12:41.626Z,13.20
2019-05-18T22:15:11.181Z,13.30
2019-05-18T22:17:58.251Z,13.40
2019-05-18T22:20:27.522Z,13.40
2019-05-18T22:22:56.864Z,13.40
2019-05-18T22:25:26.070Z,13.40
2019-05-18T22:27:55.321Z,13.50
2019-05-18T22:30:24.616Z,13.50
2019-05-18T22:32:53.906Z,13.60
2019-05-18T22:35:23.202Z,13.60
2019-05-18T22:37:52.434Z,13.80
2019-05-18T22:40:21.739Z,13.80
2019-05-18T22:42:50.968Z,13.80
2019-05-18T22:45:20.223Z,13.70
2019-05-18T22:47:49.441Z,13.60
2019-05-18T22:50:18.704Z,13.60
2019-05-18T22:52:47.980Z,13.60
2019-05-18T22:55:17.252Z,13.60
2019-05-18T22:57:46.538Z,13.60
2019-05-18T23:00:17.087Z,13.40
2019-05-18T23:02:46.363Z,13.40
2019-05-18T23:05:15.542Z,13.20
2019-05-18T23:07:44.813Z,13.10
2019-05-18T23:10:14.302Z,13.10
2019-05-18T23:12:43.471Z,12.90
2019-05-18T23:15:13.013Z,13.00
2019-05-18T23:17:42.279Z,12.90
2019-05-18T23:20:11.630Z,13.10
2019-05-18T23:22:40.910Z,13.10
2019-05-18T23:25:10.301Z,13.10
2019-05-18T23:27:39.560Z,13.00
2019-05-18T23:30:08.928Z,13.00
2019-05-18T23:32:38.269Z,12.90
2019-05-18T23:35:07.527Z,12.90
2019-05-18T23:37:36.854Z,12.80
2019-05-18T23:40:07.469Z,12.90
2019-05-18T23:42:36.732Z,12.90
2019-05-18T23:45:06.414Z,12.90
2019-05-18T23:47:35.701Z,12.90
2019-05-18T23:50:05.340Z,13.00
2019-05-18T23:52:34.613Z,13.00
2019-05-18T23:55:04.158Z,13.00
2019-05-18T23:57:33.411Z,13.00
